Etusivu
METAR-TAF:

METAR-TAF

Lentoasemat :

Charleroi, Belgia

Leveyspiiri: 50-28N, Pituuspiiri: 004-27E, korkeus merenpinnasta: 187 m

Tämänhetkinen sää

Tämä raportti tehtiin 33 minuuttia sitten, kello 10.20 UTC
Tuuli 6 kn etelästä/kaakosta, vaihdellen idän/kaakon ja etelän välillä
Lämpötila 3°C
Kosteus 87%
Ilmanpaine 1007 hPa
Näkyvyys: 6000 m
Muutamia pilviä 600 ft:n korkeudessa

METAR: EBCI 211020Z 16006KT 120V190 6000 FEW006 03/01 Q1007 NOSIG

Aika: 11:53 (10:53 UTC)

Sääennuste

Tämä raportti tehtiin 5 tuntia ja 52 minuuttia sitten, kello 05.01 UTC
Ennuste voimassa 21. päivästä klo 06 UTC - 22. päivään klo 12 UTC
Tuuli 5 kn idästä/kaakosta
Näkyvyys: 7000 m
Hajonneita pilviä 600 ft:n korkeudessa
Tulossa
21. päivästä klo 10 UTC - 21. päivään klo 12 UTC

TAF: EBCI 210501Z 2106/2212 12005KT 7000 BKN006 BECMG 2110/2112 NSC

Säähavainnot ja -ennusteet yli 4000 lentoasemalta (METAR- ja TAF-raportit).

Käytössä olevat sääasemat on merkitty karttaan keltaisilla ja punaisilla pisteillä.

Aseta hiiri pisteen päälle nähdäksesi sääaseman nimen.

Klikkaa sitten nähdäksesi säähavainnot ja -ennusteet.

Kartan vaihtaminen: klikkaa mustalla rastilla varustettuja vihreitä pisteitä, niin voit zoomata sisään; viivalla varustettua vihreää pistettä, niin voit zoomata ulos tai vihreitä nuolia, niin pääset viereisille kartoille.


METAR-TAF: